Pagrindinis puslapis
METAR-TAF:

METAR-TAF

Oro uostai :

Džordžtaunas, Dangun Žengimo sala

platuma: 07-58S, ilguma: 014-24W, Aukštis: 86 m

Dabartinis oras

Ataskaita buvo paskelbta 1 valandą ir 7 minutes, ne 02:50 UTC
Vėjas 9 kt iš Pietryčių
Temperatūra 25°C
Drėgmė 69%
Slėgis 1012 hPa
Matomumas 10 km arba daugiau
Mažai debesys ne aukštis 1800 ft
Su prošvaistėmis ne aukštis 5000 ft

METAR: FHAW 240250Z 14009KT 9999 FEW018 BKN050 25/19 Q1012 NOSIG RMK BLU BLU

Laikas: 03:57 (03:57 UTC)

Prognozė

Ataskaita buvo paskelbta 2 valandos ir 27 minutes, ne 01:30 UTC
Prognozė galioja nuo 24 metu 03 UTC su 24 metu 21 UTC
Vėjas 15 kt iš Pietų/Pietryčių
Matomumas 10 km arba daugiau
Mažai debesys ne aukštis 1800 ft
Išsisklaidę debesys ne aukštis 4000 ft
Tikimybė 30% :
Laikinai
nuo 24 metu 03 UTC su 24 metu 10 UTC
Matomumas: 7000 m
Išsisklaidę debesys ne aukštis 1600 ft
lietus

TAF: FHAW 240130Z 2403/2421 15015KT 9999 FEW018 SCT040 PROB30 TEMPO 2403/2410 7000 -SHRA SCT016

Orai ataskaitas ir orų prognozės (METAR, TAF).

turimą stotys yra geltonos ir raudonos taškus žemėlapyje.

Perkelti pele per norėdami pamatyti stoties vardą.

Tada spustelėkite, norėdami matyti oro stebėjimo ir prognozės.

Norėdami pakeisti žemėlapį: spustelėkite ant žalios mygtukų su juodo kryžiaus žemyn,; žalią mygtuką su brūkšneliu, jei norite nutolinti; arba žalių rodyklių gretimoms žemėlapius.


METAR-TAF: